Terminal Aerodrome Forecast
Issued by NWS Sioux Falls, SD

Home | Current Version | Previous Version | Graphics & Text | Print | Product List | Glossary On
Versions: 1 2 3 4 5 6 7 8 9 10 11 12 13 14 15 16 17 18
844
FTUS43 KFSD 101117 AAA
TAFHON
TAF AMD
KHON 101117Z 1011/1106 13010KT P6SM OVC050
     FM101600 11007KT P6SM OVC025
     FM110100 07005KT P6SM OVC015=

USA.gov is the U.S. government's official web portal to all federal, state and local government web resources and services.